createdAt,value
2019-01-05T00:02:30.642Z,16.87
2019-01-05T00:07:20.040Z,15.93
2019-01-05T00:09:50.741Z,16.23
2019-01-05T00:12:21.404Z,16.10
2019-01-05T00:14:52.215Z,15.87
2019-01-05T00:17:22.895Z,16.10
2019-01-05T00:22:33.868Z,15.47
2019-01-05T00:25:04.635Z,15.83
2019-01-05T00:27:35.329Z,16.10
2019-01-05T00:30:06.016Z,16.53
2019-01-05T00:32:58.525Z,16.73
2019-01-05T00:35:50.973Z,15.13
2019-01-05T00:40:54.408Z,15.33
2019-01-05T00:43:46.876Z,15.10
2019-01-05T00:46:39.332Z,15.73
2019-01-05T00:49:31.771Z,14.40
2019-01-05T00:52:24.231Z,16.13
2019-01-05T00:54:55.001Z,15.40
2019-01-05T00:57:25.795Z,15.17
2019-01-05T01:00:18.241Z,14.37
2019-01-05T01:02:49.038Z,16.10
2019-01-05T01:05:19.707Z,14.80
2019-01-05T01:07:50.500Z,14.83
2019-01-05T01:10:42.941Z,15.37
2019-01-05T01:13:13.653Z,15.97
2019-01-05T01:16:06.103Z,14.67
2019-01-05T01:18:36.796Z,16.97
2019-01-05T01:21:29.274Z,16.23
2019-01-05T01:24:00.046Z,16.07
2019-01-05T01:26:30.819Z,16.67
2019-01-05T01:29:23.292Z,17.63
2019-01-05T01:31:54.064Z,16.67
2019-01-05T01:34:24.863Z,16.10
2019-01-05T01:42:08.828Z,16.40
2019-01-05T01:45:01.291Z,16.80
2019-01-05T01:47:32.160Z,16.40
2019-01-05T01:50:03.073Z,15.83
2019-01-05T01:55:06.100Z,15.93
2019-01-05T01:57:58.545Z,14.30
2019-01-05T02:00:51.022Z,16.20
2019-01-05T02:03:43.457Z,14.73
2019-01-05T02:06:35.911Z,15.13
2019-01-05T02:09:28.372Z,15.37
2019-01-05T02:12:20.824Z,15.33
2019-01-05T02:14:51.609Z,15.67
2019-01-05T02:17:43.394Z,16.00
2019-01-05T02:20:53.830Z,15.87
2019-01-05T02:23:46.267Z,16.33
2019-01-05T02:26:56.692Z,16.50
2019-01-05T02:29:49.128Z,16.93
2019-01-05T02:32:41.604Z,17.77
2019-01-05T02:35:52.001Z,16.50
2019-01-05T02:38:44.469Z,18.00
2019-01-05T02:41:54.903Z,16.57
2019-01-05T02:44:47.325Z,17.17
2019-01-05T02:47:39.787Z,15.73
2019-01-05T02:50:50.225Z,17.33
2019-01-05T02:54:00.660Z,17.63
2019-01-05T02:56:53.087Z,16.43
2019-01-05T02:59:45.565Z,16.17
2019-01-05T03:02:55.970Z,16.27
2019-01-05T03:06:06.393Z,16.27
2019-01-05T03:08:58.844Z,17.10
2019-01-05T03:12:09.246Z,18.50
2019-01-05T03:14:43.761Z,17.37
2019-01-05T03:20:15.279Z,17.50
2019-01-05T03:23:07.742Z,18.10
2019-01-05T03:26:18.172Z,18.30
2019-01-05T03:29:10.607Z,18.10
2019-01-05T03:32:21.035Z,18.63
2019-01-05T03:35:13.487Z,19.77
2019-01-05T03:38:05.916Z,18.83
2019-01-05T03:40:58.364Z,18.23
2019-01-05T03:47:23.681Z,17.47
2019-01-05T03:50:16.120Z,18.93
2019-01-05T03:53:08.586Z,17.53
2019-01-05T03:59:20.869Z,17.37
2019-01-05T04:02:31.304Z,18.40
2019-01-05T04:05:41.692Z,18.23
2019-01-05T04:11:35.450Z,17.77
2019-01-05T04:14:27.921Z,16.97
2019-01-05T04:17:20.379Z,17.30
2019-01-05T04:20:30.801Z,16.97
2019-01-05T04:23:23.268Z,17.03
2019-01-05T04:26:33.668Z,17.40
2019-01-05T04:29:44.095Z,18.23
2019-01-05T04:32:54.516Z,18.23
2019-01-05T04:35:46.951Z,18.97
2019-01-05T04:38:39.414Z,18.47
2019-01-05T04:41:31.858Z,19.30
2019-01-05T04:44:24.305Z,18.97
2019-01-05T04:47:34.708Z,17.77
2019-01-05T04:50:27.159Z,17.83
2019-01-05T04:53:19.592Z,18.57
2019-01-05T04:56:30.036Z,18.10
2019-01-05T04:59:22.503Z,15.93
2019-01-05T05:02:14.936Z,18.03
2019-01-05T05:05:25.354Z,15.37
2019-01-05T05:08:35.757Z,17.03
2019-01-05T05:11:46.175Z,16.57
2019-01-05T05:14:38.629Z,16.00
2019-01-05T05:20:32.648Z,15.20
2019-01-05T05:23:25.082Z,14.60
2019-01-05T05:26:35.502Z,15.90
2019-01-05T05:29:45.933Z,15.70
2019-01-05T05:35:57.738Z,14.60
2019-01-05T05:42:05.048Z,14.90
2019-01-05T05:44:57.472Z,13.80
2019-01-05T05:54:14.507Z,14.23
2019-01-05T05:57:24.937Z,13.40
2019-01-05T06:00:17.401Z,12.60
2019-01-05T06:03:09.865Z,13.77
2019-01-05T06:06:20.278Z,12.53
2019-01-05T06:12:27.864Z,13.37
2019-01-05T06:15:38.267Z,13.37
2019-01-05T06:18:30.784Z,11.90
2019-01-05T06:21:41.212Z,12.30
2019-01-05T06:24:33.663Z,11.83
2019-01-05T06:27:26.101Z,11.47
2019-01-05T06:30:18.555Z,11.73
2019-01-05T06:33:28.963Z,12.40
2019-01-05T06:36:39.385Z,11.93
2019-01-05T06:39:49.796Z,11.67
2019-01-05T06:46:01.814Z,11.37
2019-01-05T06:49:12.231Z,11.10
2019-01-05T06:52:22.636Z,10.63
2019-01-05T06:55:33.054Z,11.07
2019-01-05T06:58:43.489Z,10.47
2019-01-05T07:01:35.941Z,10.23
2019-01-05T07:04:28.389Z,9.57
2019-01-05T07:07:20.851Z,10.50
2019-01-05T07:10:13.305Z,9.77
2019-01-05T07:13:05.789Z,8.83
2019-01-05T07:16:16.203Z,8.43
2019-01-05T07:31:16.185Z,7.63
2019-01-05T07:34:26.621Z,7.30
2019-01-05T07:37:19.056Z,6.70
2019-01-05T07:40:11.522Z,6.83
2019-01-05T07:43:21.953Z,6.43
2019-01-05T07:49:29.505Z,6.43
2019-01-05T07:52:39.909Z,6.33
2019-01-05T07:55:32.374Z,6.60
2019-01-05T08:01:26.309Z,6.03
2019-01-05T08:07:41.440Z,5.90
2019-01-05T08:13:38.930Z,5.50
2019-01-05T08:16:49.323Z,5.23
2019-01-05T08:19:44.857Z,4.97
2019-01-05T08:22:37.342Z,4.10
2019-01-05T08:25:29.811Z,4.50
2019-01-05T08:28:40.241Z,4.13
2019-01-05T08:31:32.723Z,4.47
2019-01-05T08:34:43.128Z,4.87
2019-01-05T08:37:35.586Z,4.50
2019-01-05T08:40:28.042Z,4.60
2019-01-05T08:46:53.556Z,4.17
2019-01-05T08:50:03.954Z,3.43
2019-01-05T08:53:14.383Z,3.43
2019-01-05T08:56:24.800Z,3.20
2019-01-05T08:59:17.289Z,3.20
2019-01-05T09:02:27.778Z,3.00
2019-01-05T09:05:38.248Z,3.20
2019-01-05T09:08:30.715Z,2.60
2019-01-05T09:11:41.132Z,3.00
2019-01-05T09:17:48.524Z,2.80
2019-01-05T09:20:58.957Z,2.90
2019-01-05T09:24:09.403Z,2.97
2019-01-05T09:27:01.852Z,2.90
2019-01-05T09:30:20.995Z,2.20
2019-01-05T09:33:13.698Z,2.83
2019-01-05T09:36:24.123Z,2.50
2019-01-05T09:39:34.547Z,2.33
2019-01-05T09:45:28.504Z,2.40
2019-01-05T09:48:20.968Z,2.13
2019-01-05T09:51:13.451Z,2.10
2019-01-05T09:57:10.140Z,1.90
2019-01-05T10:00:20.586Z,2.50
2019-01-05T10:03:13.037Z,1.90
2019-01-05T10:06:05.507Z,1.90
2019-01-05T10:08:57.946Z,1.60
2019-01-05T10:12:08.381Z,1.80
2019-01-05T10:15:00.841Z,1.70
2019-01-05T10:18:11.258Z,1.70
2019-01-05T10:24:22.812Z,2.00
2019-01-05T10:27:15.263Z,1.97
2019-01-05T10:30:25.700Z,2.50
2019-01-05T10:36:50.998Z,2.27
2019-01-05T10:39:43.464Z,2.00
2019-01-05T10:42:35.961Z,2.67
2019-01-05T10:45:46.382Z,3.13
2019-01-05T10:48:56.804Z,2.60
2019-01-05T10:51:49.282Z,3.10
2019-01-05T10:54:59.728Z,2.20
2019-01-05T10:58:10.173Z,3.23
2019-01-05T11:01:20.578Z,2.83
2019-01-05T11:04:31.014Z,2.53
2019-01-05T11:07:41.444Z,3.00
2019-01-05T11:10:51.882Z,2.60
2019-01-05T11:13:44.359Z,2.77
2019-01-05T11:16:54.792Z,2.80
2019-01-05T11:20:05.226Z,3.13
2019-01-05T11:22:57.687Z,2.70
2019-01-05T11:26:08.133Z,2.63
2019-01-05T11:32:01.756Z,2.60
2019-01-05T11:44:16.412Z,3.40
2019-01-05T11:47:26.840Z,3.47
2019-01-05T11:50:37.348Z,3.60
2019-01-05T11:56:44.614Z,3.27
2019-01-05T11:59:55.019Z,3.50
2019-01-05T12:02:47.500Z,3.83
2019-01-05T12:05:57.933Z,3.37
2019-01-05T12:08:50.390Z,3.17
2019-01-05T12:11:42.854Z,3.33
2019-01-05T12:14:35.304Z,3.13
2019-01-05T12:17:45.754Z,3.23
2019-01-05T12:20:38.228Z,3.10
2019-01-05T12:23:30.755Z,3.60
2019-01-05T12:26:41.161Z,2.73
2019-01-05T12:29:51.577Z,2.43
2019-01-05T12:32:44.061Z,2.50
2019-01-05T12:38:48.613Z,2.40
2019-01-05T12:41:41.066Z,2.73
2019-01-05T12:47:35.292Z,2.77
2019-01-05T12:50:45.688Z,2.63
2019-01-05T12:53:56.133Z,3.13
2019-01-05T12:57:06.565Z,3.00
2019-01-05T13:00:16.999Z,3.03
2019-01-05T13:06:42.530Z,3.30
2019-01-05T13:12:37.007Z,2.77
2019-01-05T13:15:47.449Z,3.20
2019-01-05T13:18:57.888Z,3.70
2019-01-05T13:21:50.392Z,3.57
2019-01-05T13:25:00.838Z,4.20
2019-01-05T13:27:53.300Z,4.10
2019-01-05T13:30:45.806Z,3.97
2019-01-05T13:33:38.258Z,3.90
2019-01-05T13:36:30.768Z,4.43
2019-01-05T13:39:23.213Z,4.60
2019-01-05T13:45:17.343Z,4.60
2019-01-05T13:48:27.758Z,5.10
2019-01-05T13:51:20.223Z,5.67
2019-01-05T13:54:12.679Z,5.17
2019-01-05T14:01:45.852Z,6.23
2019-01-05T14:04:16.535Z,6.60
2019-01-05T14:06:47.266Z,7.07
2019-01-05T14:09:17.934Z,5.57
2019-01-05T14:14:21.016Z,6.10
2019-01-05T14:16:51.699Z,7.03
2019-01-05T14:19:22.498Z,7.27
2019-01-05T14:21:53.218Z,5.43
2019-01-05T14:24:23.916Z,4.80
2019-01-05T14:29:27.004Z,5.10
2019-01-05T14:31:57.676Z,5.33
2019-01-05T14:36:47.139Z,6.13
2019-01-05T14:39:17.835Z,7.27
2019-01-05T14:41:48.565Z,7.23
2019-01-05T14:46:41.477Z,6.63
2019-01-05T14:49:12.147Z,7.20
2019-01-05T14:51:42.850Z,6.83
2019-01-05T14:54:13.516Z,7.47
2019-01-05T14:56:44.224Z,7.27
2019-01-05T14:59:14.936Z,7.90
2019-01-05T15:04:07.755Z,7.43
2019-01-05T15:15:53.480Z,8.10
2019-01-05T15:20:46.360Z,7.57
2019-01-05T15:25:49.504Z,8.00
2019-01-05T15:28:20.192Z,8.43
2019-01-05T15:30:50.895Z,8.60
2019-01-05T15:33:21.585Z,8.50
2019-01-05T15:35:52.472Z,8.30
2019-01-05T15:38:23.169Z,8.47
2019-01-05T15:40:53.864Z,8.83
2019-01-05T15:43:24.583Z,9.20
2019-01-05T15:45:55.575Z,7.60
2019-01-05T15:48:26.296Z,9.37
2019-01-05T15:50:59.227Z,9.23
2019-01-05T15:53:29.921Z,9.10
2019-01-05T15:58:15.117Z,10.50
2019-01-05T16:00:37.159Z,10.33
2019-01-05T16:03:06.659Z,10.10
2019-01-05T16:05:19.426Z,9.60
2019-01-05T16:07:38.136Z,10.03
2019-01-05T16:10:06.239Z,10.23
2019-01-05T16:12:35.606Z,10.43
2019-01-05T16:15:06.545Z,10.27
2019-01-05T16:17:31.125Z,10.43
2019-01-05T16:19:43.944Z,11.03
2019-01-05T16:21:56.699Z,11.40
2019-01-05T16:24:12.266Z,11.00
2019-01-05T16:26:28.013Z,10.90
2019-01-05T16:28:40.716Z,11.50
2019-01-05T16:31:05.810Z,12.60
2019-01-05T16:33:33.340Z,11.90
2019-01-05T16:35:48.866Z,11.90
2019-01-05T16:38:01.617Z,12.93
2019-01-05T16:40:17.189Z,12.60
2019-01-05T16:42:32.718Z,12.43
2019-01-05T16:44:48.272Z,12.63
2019-01-05T16:47:04.058Z,12.80
2019-01-05T16:49:25.864Z,12.10
2019-01-05T16:51:55.131Z,12.10
2019-01-05T16:54:13.843Z,12.83
2019-01-05T16:56:26.564Z,11.70
2019-01-05T16:58:56.142Z,12.63
2019-01-05T17:01:25.554Z,12.53
2019-01-05T17:03:54.930Z,12.57
2019-01-05T17:06:10.494Z,11.70
2019-01-05T17:08:40.101Z,11.70
2019-01-05T17:10:55.588Z,12.30
2019-01-05T17:13:11.240Z,12.57
2019-01-05T17:15:29.985Z,11.70
2019-01-05T17:17:48.806Z,11.97
2019-01-05T17:20:18.172Z,13.43
2019-01-05T17:22:30.913Z,12.03
2019-01-05T17:24:46.665Z,11.70
2019-01-05T17:27:02.339Z,12.27
2019-01-05T17:29:24.126Z,11.50
2019-01-05T17:31:36.838Z,11.47
2019-01-05T17:33:52.342Z,11.87
2019-01-05T17:36:21.892Z,11.73
2019-01-05T17:38:37.418Z,12.13
2019-01-05T17:40:52.891Z,14.30
2019-01-05T17:43:08.539Z,14.63
2019-01-05T17:45:33.049Z,10.47
2019-01-05T17:48:01.149Z,8.00
2019-01-05T17:50:16.906Z,7.47
2019-01-05T17:52:48.183Z,7.73
2019-01-05T17:55:17.557Z,7.37
2019-01-05T17:57:48.285Z,9.17
2019-01-05T18:00:01.068Z,8.60
2019-01-05T18:02:25.992Z,9.00
2019-01-05T18:04:41.772Z,8.97
2019-01-05T18:07:03.414Z,8.73
2019-01-05T18:09:26.761Z,9.30
2019-01-05T18:11:39.397Z,9.50
2019-01-05T18:14:08.917Z,10.07
2019-01-05T18:16:38.196Z,9.27
2019-01-05T18:19:07.586Z,9.90
2019-01-05T18:21:29.439Z,9.13
2019-01-05T18:23:42.153Z,9.93
2019-01-05T18:25:54.999Z,9.67
2019-01-05T18:28:10.777Z,8.60
2019-01-05T18:30:40.305Z,9.67
2019-01-05T18:33:02.088Z,9.33
2019-01-05T18:35:14.854Z,10.47
2019-01-05T18:37:36.798Z,11.13
2019-01-05T18:40:04.699Z,10.10
2019-01-05T18:42:23.543Z,10.67
2019-01-05T18:44:54.297Z,11.17
2019-01-05T18:47:13.197Z,10.97
2019-01-05T18:49:34.924Z,10.07
2019-01-05T18:51:47.675Z,10.87
2019-01-05T18:54:09.238Z,9.73
2019-01-05T18:56:34.120Z,10.50
2019-01-05T18:58:49.826Z,10.37
2019-01-05T19:01:11.400Z,10.13
2019-01-05T19:03:27.169Z,9.57
2019-01-05T19:05:56.848Z,10.20
2019-01-05T19:08:18.555Z,10.20
2019-01-05T19:10:43.673Z,11.10
2019-01-05T19:13:08.471Z,10.93
2019-01-05T19:15:37.848Z,11.00
2019-01-05T19:17:50.620Z,12.00
2019-01-05T19:20:06.403Z,10.80
2019-01-05T19:22:25.443Z,10.93
2019-01-05T19:24:50.263Z,11.50
2019-01-05T19:27:05.938Z,11.33
2019-01-05T19:29:18.661Z,11.23
2019-01-05T19:31:34.430Z,10.90
2019-01-05T19:33:53.402Z,11.73
2019-01-05T19:36:09.155Z,10.80
2019-01-05T19:38:38.368Z,10.57
2019-01-05T19:41:07.991Z,10.40
2019-01-05T19:43:26.545Z,11.13
2019-01-05T19:45:48.432Z,10.70
2019-01-05T19:48:03.899Z,10.90
2019-01-05T19:50:33.316Z,9.63
2019-01-05T19:52:51.984Z,10.37
2019-01-05T19:55:22.354Z,12.27
2019-01-05T19:57:35.144Z,11.07
2019-01-05T20:00:04.753Z,11.13
2019-01-05T20:02:29.648Z,11.10
2019-01-05T20:04:45.111Z,11.50
2019-01-05T20:07:15.073Z,10.93
2019-01-05T20:09:46.022Z,11.33
2019-01-05T20:12:01.476Z,12.07
2019-01-05T20:14:29.393Z,10.30
2019-01-05T20:17:00.320Z,10.63
2019-01-05T20:19:29.612Z,11.10
2019-01-05T20:21:42.406Z,11.27
2019-01-05T20:24:00.973Z,10.83
2019-01-05T20:26:22.494Z,10.50
2019-01-05T20:28:38.007Z,11.03
2019-01-05T20:30:50.745Z,9.67
2019-01-05T20:33:03.509Z,10.43
2019-01-05T20:35:19.111Z,10.13
2019-01-05T20:37:37.531Z,9.80
2019-01-05T20:39:50.296Z,10.57
2019-01-05T20:42:11.721Z,11.33
2019-01-05T20:44:42.754Z,9.90
2019-01-05T20:47:04.461Z,10.53
2019-01-05T20:49:32.348Z,10.40
2019-01-05T20:51:45.079Z,10.87
2019-01-05T20:54:04.009Z,10.13
2019-01-05T20:56:16.777Z,10.27
2019-01-05T20:58:38.299Z,10.97
2019-01-05T21:01:07.574Z,9.87
2019-01-05T21:03:20.318Z,9.70
2019-01-05T21:05:33.057Z,9.93
2019-01-05T21:07:45.915Z,9.03
2019-01-05T21:10:04.644Z,11.40
2019-01-05T21:12:23.553Z,11.50
2019-01-05T21:14:47.940Z,10.40
2019-01-05T21:17:09.523Z,9.67
2019-01-05T21:19:22.261Z,9.90
2019-01-05T21:21:37.888Z,10.23
2019-01-05T21:23:59.855Z,10.77
2019-01-05T21:26:29.474Z,9.50
2019-01-05T21:28:48.051Z,10.70
2019-01-05T21:31:17.807Z,9.90
2019-01-05T21:33:33.327Z,10.07
2019-01-05T21:36:02.926Z,9.73
2019-01-05T21:38:27.782Z,9.47
2019-01-05T21:40:43.341Z,9.07
2019-01-05T21:42:59.014Z,9.73
2019-01-05T21:45:23.945Z,9.60
2019-01-05T21:47:51.795Z,9.50
2019-01-05T21:50:05.337Z,9.10
2019-01-05T21:52:24.332Z,9.63
2019-01-05T21:54:40.113Z,9.97
2019-01-05T21:57:10.694Z,10.07
2019-01-05T21:59:26.398Z,9.67
2019-01-05T22:01:41.929Z,10.43
2019-01-05T22:04:03.226Z,9.97
2019-01-05T22:06:21.537Z,10.33
2019-01-05T22:08:34.265Z,9.87
2019-01-05T22:10:49.897Z,9.50
2019-01-05T22:13:08.626Z,9.90
2019-01-05T22:15:26.907Z,9.50
2019-01-05T22:17:39.617Z,9.83
2019-01-05T22:19:56.195Z,10.67
2019-01-05T22:22:08.984Z,10.47
2019-01-05T22:24:38.836Z,10.40
2019-01-05T22:27:08.208Z,10.47
2019-01-05T22:29:37.729Z,10.07
2019-01-05T22:32:08.612Z,10.13
2019-01-05T22:34:36.378Z,9.87
2019-01-05T22:36:58.385Z,10.60
2019-01-05T22:39:11.109Z,10.77
2019-01-05T22:41:40.417Z,10.83
2019-01-05T22:43:53.118Z,10.47
2019-01-05T22:46:22.489Z,10.87
2019-01-05T22:48:52.075Z,11.33
2019-01-05T22:51:07.631Z,10.20
2019-01-05T22:53:20.353Z,10.50
2019-01-05T22:55:33.067Z,10.93
2019-01-05T22:58:02.778Z,9.67
2019-01-05T23:00:32.125Z,11.43
2019-01-05T23:02:44.891Z,9.30
2019-01-05T23:05:03.610Z,9.43
2019-01-05T23:07:25.646Z,9.90
2019-01-05T23:09:38.537Z,11.00
2019-01-05T23:12:09.515Z,10.80
2019-01-05T23:14:39.188Z,10.97
2019-01-05T23:16:51.969Z,10.17
2019-01-05T23:19:04.696Z,9.93
2019-01-05T23:21:17.406Z,9.97
2019-01-05T23:23:30.174Z,10.33
2019-01-05T23:25:45.625Z,11.60
2019-01-05T23:28:15.024Z,10.93
2019-01-05T23:30:27.737Z,10.37
2019-01-05T23:32:40.467Z,10.93
2019-01-05T23:34:53.195Z,10.40
2019-01-05T23:37:21.005Z,10.00
2019-01-05T23:39:51.711Z,10.03
2019-01-05T23:42:22.433Z,9.37
2019-01-05T23:47:15.225Z,7.93
2019-01-05T23:49:45.909Z,8.60
2019-01-05T23:52:16.575Z,8.80
2019-01-05T23:57:06.073Z,8.70
2019-01-05T23:59:36.796Z,8.90
